sensor_id;sensor_type;location;lat;lon;timestamp;P1;durP1;ratioP1;P2;durP2;ratioP2
60169;SDS011;46042;49.444;6.862;2023-03-03T00:00:24;19.30;;;10.60;;
60169;SDS011;46042;49.444;6.862;2023-03-03T00:02:50;25.50;;;11.50;;
60169;SDS011;46042;49.444;6.862;2023-03-03T00:05:17;24.20;;;11.40;;
60169;SDS011;46042;49.444;6.862;2023-03-03T00:07:44;25.57;;;11.30;;
60169;SDS011;46042;49.444;6.862;2023-03-03T00:10:11;18.10;;;10.73;;
60169;SDS011;46042;49.444;6.862;2023-03-03T00:12:48;19.83;;;9.43;;
60169;SDS011;46042;49.444;6.862;2023-03-03T00:15:17;14.77;;;8.97;;
60169;SDS011;46042;49.444;6.862;2023-03-03T00:17:45;18.37;;;8.23;;
60169;SDS011;46042;49.444;6.862;2023-03-03T00:25:58;13.93;;;8.03;;
60169;SDS011;46042;49.444;6.862;2023-03-03T00:28:27;16.93;;;8.17;;
60169;SDS011;46042;49.444;6.862;2023-03-03T00:31:11;16.23;;;8.63;;
60169;SDS011;46042;49.444;6.862;2023-03-03T00:33:48;16.47;;;7.87;;
60169;SDS011;46042;49.444;6.862;2023-03-03T00:41:47;15.43;;;8.50;;
60169;SDS011;46042;49.444;6.862;2023-03-03T00:46:51;22.97;;;8.13;;
60169;SDS011;46042;49.444;6.862;2023-03-03T00:49:23;15.53;;;8.13;;
60169;SDS011;46042;49.444;6.862;2023-03-03T00:51:52;15.37;;;7.67;;
60169;SDS011;46042;49.444;6.862;2023-03-03T00:54:19;16.80;;;7.37;;
60169;SDS011;46042;49.444;6.862;2023-03-03T00:56:46;14.03;;;6.50;;
60169;SDS011;46042;49.444;6.862;2023-03-03T00:59:12;16.27;;;7.87;;
60169;SDS011;46042;49.444;6.862;2023-03-03T01:01:39;16.90;;;7.63;;
60169;SDS011;46042;49.444;6.862;2023-03-03T01:04:05;13.77;;;7.50;;
60169;SDS011;46042;49.444;6.862;2023-03-03T01:06:32;18.17;;;9.50;;
60169;SDS011;46042;49.444;6.862;2023-03-03T01:08:59;15.30;;;7.43;;
60169;SDS011;46042;49.444;6.862;2023-03-03T01:11:25;10.47;;;7.40;;
60169;SDS011;46042;49.444;6.862;2023-03-03T01:13:54;15.53;;;7.80;;
60169;SDS011;46042;49.444;6.862;2023-03-03T01:16:22;17.87;;;7.57;;
60169;SDS011;46042;49.444;6.862;2023-03-03T01:18:48;13.07;;;6.90;;
60169;SDS011;46042;49.444;6.862;2023-03-03T01:21:15;12.93;;;7.07;;
60169;SDS011;46042;49.444;6.862;2023-03-03T01:23:41;16.30;;;7.90;;
60169;SDS011;46042;49.444;6.862;2023-03-03T01:26:08;12.30;;;7.17;;
60169;SDS011;46042;49.444;6.862;2023-03-03T01:28:35;9.80;;;6.07;;
60169;SDS011;46042;49.444;6.862;2023-03-03T01:31:03;11.37;;;6.20;;
60169;SDS011;46042;49.444;6.862;2023-03-03T01:33:31;14.40;;;7.80;;
60169;SDS011;46042;49.444;6.862;2023-03-03T01:35:59;15.33;;;7.90;;
60169;SDS011;46042;49.444;6.862;2023-03-03T01:38:26;16.70;;;8.00;;
60169;SDS011;46042;49.444;6.862;2023-03-03T01:40:53;10.83;;;6.90;;
60169;SDS011;46042;49.444;6.862;2023-03-03T01:43:21;15.10;;;6.97;;
60169;SDS011;46042;49.444;6.862;2023-03-03T01:50:48;12.77;;;7.73;;
60169;SDS011;46042;49.444;6.862;2023-03-03T01:53:27;18.00;;;7.80;;
60169;SDS011;46042;49.444;6.862;2023-03-03T01:55:59;11.83;;;7.07;;
60169;SDS011;46042;49.444;6.862;2023-03-03T01:58:30;22.23;;;8.83;;
60169;SDS011;46042;49.444;6.862;2023-03-03T02:01:06;11.33;;;6.97;;
60169;SDS011;46042;49.444;6.862;2023-03-03T02:03:37;13.37;;;6.93;;
60169;SDS011;46042;49.444;6.862;2023-03-03T02:06:09;13.77;;;6.60;;
60169;SDS011;46042;49.444;6.862;2023-03-03T02:09:23;10.17;;;5.57;;
60169;SDS011;46042;49.444;6.862;2023-03-03T02:11:35;15.67;;;6.23;;
60169;SDS011;46042;49.444;6.862;2023-03-03T02:14:03;17.57;;;6.40;;
60169;SDS011;46042;49.444;6.862;2023-03-03T02:16:30;13.40;;;5.97;;
60169;SDS011;46042;49.444;6.862;2023-03-03T02:18:57;12.07;;;6.53;;
60169;SDS011;46042;49.444;6.862;2023-03-03T02:21:24;11.40;;;5.73;;
60169;SDS011;46042;49.444;6.862;2023-03-03T02:26:55;8.77;;;5.27;;
60169;SDS011;46042;49.444;6.862;2023-03-03T02:29:23;13.00;;;5.80;;
60169;SDS011;46042;49.444;6.862;2023-03-03T02:31:49;13.30;;;5.33;;
60169;SDS011;46042;49.444;6.862;2023-03-03T02:34:16;14.50;;;6.23;;
60169;SDS011;46042;49.444;6.862;2023-03-03T02:36:43;16.73;;;6.13;;
60169;SDS011;46042;49.444;6.862;2023-03-03T02:44:21;8.27;;;5.37;;
60169;SDS011;46042;49.444;6.862;2023-03-03T02:46:50;9.70;;;5.50;;
60169;SDS011;46042;49.444;6.862;2023-03-03T02:49:19;10.57;;;5.33;;
60169;SDS011;46042;49.444;6.862;2023-03-03T02:51:48;7.87;;;4.77;;
60169;SDS011;46042;49.444;6.862;2023-03-03T02:54:16;15.23;;;6.03;;
60169;SDS011;46042;49.444;6.862;2023-03-03T02:56:44;8.83;;;4.83;;
60169;SDS011;46042;49.444;6.862;2023-03-03T02:59:11;15.33;;;6.00;;
60169;SDS011;46042;49.444;6.862;2023-03-03T03:01:38;11.57;;;5.73;;
60169;SDS011;46042;49.444;6.862;2023-03-03T03:04:06;10.23;;;4.60;;
60169;SDS011;46042;49.444;6.862;2023-03-03T03:06:44;9.30;;;5.23;;
60169;SDS011;46042;49.444;6.862;2023-03-03T03:09:11;11.57;;;5.00;;
60169;SDS011;46042;49.444;6.862;2023-03-03T03:11:38;11.33;;;5.77;;
60169;SDS011;46042;49.444;6.862;2023-03-03T03:14:07;9.80;;;5.50;;
60169;SDS011;46042;49.444;6.862;2023-03-03T03:16:35;12.13;;;4.80;;
60169;SDS011;46042;49.444;6.862;2023-03-03T03:19:02;9.13;;;5.17;;
60169;SDS011;46042;49.444;6.862;2023-03-03T03:21:30;10.60;;;5.00;;
60169;SDS011;46042;49.444;6.862;2023-03-03T03:23:57;7.53;;;4.40;;
60169;SDS011;46042;49.444;6.862;2023-03-03T03:26:24;12.10;;;4.93;;
60169;SDS011;46042;49.444;6.862;2023-03-03T03:28:51;11.90;;;4.70;;
60169;SDS011;46042;49.444;6.862;2023-03-03T03:31:18;7.27;;;4.73;;
60169;SDS011;46042;49.444;6.862;2023-03-03T03:33:46;9.57;;;5.20;;
60169;SDS011;46042;49.444;6.862;2023-03-03T03:36:14;10.13;;;5.50;;
60169;SDS011;46042;49.444;6.862;2023-03-03T03:38:42;10.17;;;5.73;;
60169;SDS011;46042;49.444;6.862;2023-03-03T03:41:09;7.13;;;4.30;;
60169;SDS011;46042;49.444;6.862;2023-03-03T03:43:37;9.00;;;5.67;;
60169;SDS011;46042;49.444;6.862;2023-03-03T03:46:03;8.83;;;5.67;;
60169;SDS011;46042;49.444;6.862;2023-03-03T03:48:30;11.00;;;5.70;;
60169;SDS011;46042;49.444;6.862;2023-03-03T03:50:57;12.17;;;5.60;;
60169;SDS011;46042;49.444;6.862;2023-03-03T03:53:24;9.03;;;5.27;;
60169;SDS011;46042;49.444;6.862;2023-03-03T03:55:50;19.50;;;5.63;;
60169;SDS011;46042;49.444;6.862;2023-03-03T03:58:17;8.17;;;5.30;;
60169;SDS011;46042;49.444;6.862;2023-03-03T04:00:45;8.37;;;4.70;;
60169;SDS011;46042;49.444;6.862;2023-03-03T04:03:12;12.33;;;5.73;;
60169;SDS011;46042;49.444;6.862;2023-03-03T04:05:40;7.87;;;4.97;;
60169;SDS011;46042;49.444;6.862;2023-03-03T04:08:07;9.83;;;5.50;;
60169;SDS011;46042;49.444;6.862;2023-03-03T04:10:33;12.87;;;5.77;;
60169;SDS011;46042;49.444;6.862;2023-03-03T04:13:00;10.97;;;5.47;;
60169;SDS011;46042;49.444;6.862;2023-03-03T04:15:27;12.60;;;5.33;;
60169;SDS011;46042;49.444;6.862;2023-03-03T04:17:53;7.57;;;4.80;;
60169;SDS011;46042;49.444;6.862;2023-03-03T04:20:20;10.53;;;4.93;;
60169;SDS011;46042;49.444;6.862;2023-03-03T04:22:47;7.23;;;4.00;;
60169;SDS011;46042;49.444;6.862;2023-03-03T04:25:14;12.97;;;5.30;;
60169;SDS011;46042;49.444;6.862;2023-03-03T04:27:42;13.97;;;4.63;;
60169;SDS011;46042;49.444;6.862;2023-03-03T04:30:09;5.70;;;3.97;;
60169;SDS011;46042;49.444;6.862;2023-03-03T04:32:37;6.53;;;4.13;;
60169;SDS011;46042;49.444;6.862;2023-03-03T04:35:04;7.97;;;4.47;;
60169;SDS011;46042;49.444;6.862;2023-03-03T04:37:34;9.60;;;5.07;;
60169;SDS011;46042;49.444;6.862;2023-03-03T04:40:02;11.53;;;5.30;;
60169;SDS011;46042;49.444;6.862;2023-03-03T04:42:30;7.77;;;4.93;;
60169;SDS011;46042;49.444;6.862;2023-03-03T04:44:57;7.87;;;4.60;;
60169;SDS011;46042;49.444;6.862;2023-03-03T04:47:23;11.03;;;4.60;;
60169;SDS011;46042;49.444;6.862;2023-03-03T04:49:51;8.53;;;4.97;;
60169;SDS011;46042;49.444;6.862;2023-03-03T04:52:18;8.47;;;4.40;;
60169;SDS011;46042;49.444;6.862;2023-03-03T04:54:44;10.27;;;4.67;;
60169;SDS011;46042;49.444;6.862;2023-03-03T04:57:11;11.23;;;5.40;;
60169;SDS011;46042;49.444;6.862;2023-03-03T04:59:37;14.80;;;5.30;;
60169;SDS011;46042;49.444;6.862;2023-03-03T05:02:04;14.83;;;4.20;;
60169;SDS011;46042;49.444;6.862;2023-03-03T05:04:31;7.80;;;4.50;;
60169;SDS011;46042;49.444;6.862;2023-03-03T05:06:57;11.80;;;5.30;;
60169;SDS011;46042;49.444;6.862;2023-03-03T05:09:24;9.60;;;5.87;;
60169;SDS011;46042;49.444;6.862;2023-03-03T05:11:51;9.67;;;5.00;;
60169;SDS011;46042;49.444;6.862;2023-03-03T05:14:17;8.50;;;4.90;;
60169;SDS011;46042;49.444;6.862;2023-03-03T05:16:44;10.90;;;5.80;;
60169;SDS011;46042;49.444;6.862;2023-03-03T05:19:11;9.87;;;5.20;;
60169;SDS011;46042;49.444;6.862;2023-03-03T05:21:37;12.63;;;5.37;;
60169;SDS011;46042;49.444;6.862;2023-03-03T05:24:08;11.07;;;5.63;;
60169;SDS011;46042;49.444;6.862;2023-03-03T05:26:36;12.77;;;6.57;;
60169;SDS011;46042;49.444;6.862;2023-03-03T05:29:04;12.00;;;5.47;;
60169;SDS011;46042;49.444;6.862;2023-03-03T05:31:31;11.17;;;5.67;;
60169;SDS011;46042;49.444;6.862;2023-03-03T05:33:57;8.63;;;4.87;;
60169;SDS011;46042;49.444;6.862;2023-03-03T05:36:24;9.23;;;5.43;;
60169;SDS011;46042;49.444;6.862;2023-03-03T05:38:51;38.77;;;6.13;;
60169;SDS011;46042;49.444;6.862;2023-03-03T05:41:17;10.47;;;5.70;;
60169;SDS011;46042;49.444;6.862;2023-03-03T05:43:44;8.63;;;5.03;;
60169;SDS011;46042;49.444;6.862;2023-03-03T05:46:10;9.90;;;4.80;;
60169;SDS011;46042;49.444;6.862;2023-03-03T05:48:38;8.20;;;4.30;;
60169;SDS011;46042;49.444;6.862;2023-03-03T05:51:04;5.50;;;3.43;;
60169;SDS011;46042;49.444;6.862;2023-03-03T05:53:31;11.53;;;4.53;;
60169;SDS011;46042;49.444;6.862;2023-03-03T05:55:57;9.47;;;5.70;;
60169;SDS011;46042;49.444;6.862;2023-03-03T05:58:24;9.27;;;4.97;;
60169;SDS011;46042;49.444;6.862;2023-03-03T06:00:51;9.23;;;5.20;;
60169;SDS011;46042;49.444;6.862;2023-03-03T06:03:18;9.10;;;5.07;;
60169;SDS011;46042;49.444;6.862;2023-03-03T06:05:45;8.30;;;4.37;;
60169;SDS011;46042;49.444;6.862;2023-03-03T06:08:11;9.90;;;4.47;;
60169;SDS011;46042;49.444;6.862;2023-03-03T06:10:38;9.70;;;3.97;;
60169;SDS011;46042;49.444;6.862;2023-03-03T06:13:05;6.87;;;3.87;;
60169;SDS011;46042;49.444;6.862;2023-03-03T06:15:31;7.63;;;3.40;;
60169;SDS011;46042;49.444;6.862;2023-03-03T06:17:58;7.87;;;4.17;;
60169;SDS011;46042;49.444;6.862;2023-03-03T06:20:24;8.07;;;5.13;;
60169;SDS011;46042;49.444;6.862;2023-03-03T06:22:51;8.50;;;4.57;;
60169;SDS011;46042;49.444;6.862;2023-03-03T06:25:18;12.87;;;4.97;;
60169;SDS011;46042;49.444;6.862;2023-03-03T06:27:45;11.80;;;5.27;;
60169;SDS011;46042;49.444;6.862;2023-03-03T06:30:12;16.47;;;6.03;;
60169;SDS011;46042;49.444;6.862;2023-03-03T06:32:39;8.47;;;6.03;;
60169;SDS011;46042;49.444;6.862;2023-03-03T06:35:05;16.83;;;6.07;;
60169;SDS011;46042;49.444;6.862;2023-03-03T06:37:32;12.83;;;6.70;;
60169;SDS011;46042;49.444;6.862;2023-03-03T06:39:59;11.10;;;6.27;;
60169;SDS011;46042;49.444;6.862;2023-03-03T06:42:26;10.50;;;5.73;;
60169;SDS011;46042;49.444;6.862;2023-03-03T06:44:52;30.03;;;5.97;;
60169;SDS011;46042;49.444;6.862;2023-03-03T06:47:19;9.47;;;4.87;;
60169;SDS011;46042;49.444;6.862;2023-03-03T06:49:45;10.13;;;5.03;;
60169;SDS011;46042;49.444;6.862;2023-03-03T06:52:30;11.27;;;5.73;;
60169;SDS011;46042;49.444;6.862;2023-03-03T06:54:58;12.03;;;5.87;;
60169;SDS011;46042;49.444;6.862;2023-03-03T06:57:28;13.73;;;7.17;;
60169;SDS011;46042;49.444;6.862;2023-03-03T06:59:59;24.33;;;6.73;;
60169;SDS011;46042;49.444;6.862;2023-03-03T07:02:40;12.97;;;7.53;;
60169;SDS011;46042;49.444;6.862;2023-03-03T07:05:15;17.10;;;8.30;;
60169;SDS011;46042;49.444;6.862;2023-03-03T07:07:43;15.33;;;7.60;;
60169;SDS011;46042;49.444;6.862;2023-03-03T07:10:32;20.73;;;7.73;;
60169;SDS011;46042;49.444;6.862;2023-03-03T07:13:01;14.37;;;7.23;;
60169;SDS011;46042;49.444;6.862;2023-03-03T07:15:42;15.10;;;8.17;;
60169;SDS011;46042;49.444;6.862;2023-03-03T07:26:39;20.13;;;10.23;;
60169;SDS011;46042;49.444;6.862;2023-03-03T07:29:18;18.23;;;8.53;;
60169;SDS011;46042;49.444;6.862;2023-03-03T07:31:52;16.47;;;8.17;;
60169;SDS011;46042;49.444;6.862;2023-03-03T07:34:43;23.00;;;9.77;;
60169;SDS011;46042;49.444;6.862;2023-03-03T07:40:00;13.23;;;7.20;;
60169;SDS011;46042;49.444;6.862;2023-03-03T07:42:52;12.30;;;8.17;;
60169;SDS011;46042;49.444;6.862;2023-03-03T07:45:32;16.37;;;8.73;;
60169;SDS011;46042;49.444;6.862;2023-03-03T07:48:07;19.02;;;7.72;;
60169;SDS011;46042;49.444;6.862;2023-03-03T07:50:56;13.98;;;7.22;;
60169;SDS011;46042;49.444;6.862;2023-03-03T07:53:28;16.45;;;7.95;;
60169;SDS011;46042;49.444;6.862;2023-03-03T07:56:00;19.00;;;9.82;;
60169;SDS011;46042;49.444;6.862;2023-03-03T07:58:35;19.98;;;9.88;;
60169;SDS011;46042;49.444;6.862;2023-03-03T08:04:17;28.35;;;9.85;;
60169;SDS011;46042;49.444;6.862;2023-03-03T08:06:48;23.08;;;9.52;;
60169;SDS011;46042;49.444;6.862;2023-03-03T08:14:32;17.45;;;9.40;;
60169;SDS011;46042;49.444;6.862;2023-03-03T08:17:00;15.70;;;8.75;;
60169;SDS011;46042;49.444;6.862;2023-03-03T08:19:29;20.23;;;8.88;;
60169;SDS011;46042;49.444;6.862;2023-03-03T08:22:00;17.80;;;8.75;;
60169;SDS011;46042;49.444;6.862;2023-03-03T08:24:34;16.92;;;8.23;;
60169;SDS011;46042;49.444;6.862;2023-03-03T08:27:03;17.27;;;7.78;;
60169;SDS011;46042;49.444;6.862;2023-03-03T08:29:30;17.83;;;7.90;;
60169;SDS011;46042;49.444;6.862;2023-03-03T08:31:56;13.80;;;8.30;;
60169;SDS011;46042;49.444;6.862;2023-03-03T08:34:23;16.35;;;8.35;;
60169;SDS011;46042;49.444;6.862;2023-03-03T08:36:50;13.80;;;8.43;;
60169;SDS011;46042;49.444;6.862;2023-03-03T08:39:16;16.23;;;8.43;;
60169;SDS011;46042;49.444;6.862;2023-03-03T08:41:43;21.27;;;9.57;;
60169;SDS011;46042;49.444;6.862;2023-03-03T08:44:11;17.60;;;8.43;;
60169;SDS011;46042;49.444;6.862;2023-03-03T08:46:37;26.80;;;9.10;;
60169;SDS011;46042;49.444;6.862;2023-03-03T08:49:04;15.02;;;8.88;;
60169;SDS011;46042;49.444;6.862;2023-03-03T08:51:31;17.90;;;8.95;;
60169;SDS011;46042;49.444;6.862;2023-03-03T08:53:59;17.88;;;9.10;;
60169;SDS011;46042;49.444;6.862;2023-03-03T08:56:26;17.88;;;9.80;;
60169;SDS011;46042;49.444;6.862;2023-03-03T08:58:52;18.13;;;9.40;;
60169;SDS011;46042;49.444;6.862;2023-03-03T09:01:28;19.48;;;10.75;;
60169;SDS011;46042;49.444;6.862;2023-03-03T09:03:56;15.43;;;9.38;;
60169;SDS011;46042;49.444;6.862;2023-03-03T09:06:23;22.92;;;10.93;;
60169;SDS011;46042;49.444;6.862;2023-03-03T09:08:50;15.93;;;9.85;;
60169;SDS011;46042;49.444;6.862;2023-03-03T09:11:18;16.92;;;10.23;;
60169;SDS011;46042;49.444;6.862;2023-03-03T09:13:53;23.73;;;11.05;;
60169;SDS011;46042;49.444;6.862;2023-03-03T09:16:34;17.48;;;10.13;;
60169;SDS011;46042;49.444;6.862;2023-03-03T09:21:56;18.77;;;10.88;;
60169;SDS011;46042;49.444;6.862;2023-03-03T09:24:29;18.80;;;10.52;;
60169;SDS011;46042;49.444;6.862;2023-03-03T09:26:57;20.45;;;10.95;;
60169;SDS011;46042;49.444;6.862;2023-03-03T09:31:55;19.80;;;9.85;;
60169;SDS011;46042;49.444;6.862;2023-03-03T09:37:02;16.75;;;10.63;;
60169;SDS011;46042;49.444;6.862;2023-03-03T09:39:52;24.63;;;11.93;;
60169;SDS011;46042;49.444;6.862;2023-03-03T09:45:09;20.98;;;10.15;;
60169;SDS011;46042;49.444;6.862;2023-03-03T09:53:40;17.30;;;10.70;;
60169;SDS011;46042;49.444;6.862;2023-03-03T09:55:50;19.65;;;9.88;;
60169;SDS011;46042;49.444;6.862;2023-03-03T09:58:28;15.88;;;10.02;;
60169;SDS011;46042;49.444;6.862;2023-03-03T10:00:58;17.52;;;11.00;;
60169;SDS011;46042;49.444;6.862;2023-03-03T10:06:44;17.65;;;11.05;;
60169;SDS011;46042;49.444;6.862;2023-03-03T10:12:26;20.58;;;11.15;;
60169;SDS011;46042;49.444;6.862;2023-03-03T10:26:16;18.13;;;11.13;;
60169;SDS011;46042;49.444;6.862;2023-03-03T10:29:14;20.20;;;11.10;;
60169;SDS011;46042;49.444;6.862;2023-03-03T10:34:32;20.67;;;10.35;;
60169;SDS011;46042;49.444;6.862;2023-03-03T10:59:43;22.83;;;12.25;;
60169;SDS011;46042;49.444;6.862;2023-03-03T11:02:24;23.33;;;12.20;;
60169;SDS011;46042;49.444;6.862;2023-03-03T11:07:43;18.90;;;11.02;;
60169;SDS011;46042;49.444;6.862;2023-03-03T11:13:39;18.65;;;11.50;;
60169;SDS011;46042;49.444;6.862;2023-03-03T11:24:37;21.98;;;11.38;;
60169;SDS011;46042;49.444;6.862;2023-03-03T11:35:15;18.08;;;10.98;;
60169;SDS011;46042;49.444;6.862;2023-03-03T11:40:46;20.83;;;11.23;;
60169;SDS011;46042;49.444;6.862;2023-03-03T11:43:39;19.77;;;12.07;;
60169;SDS011;46042;49.444;6.862;2023-03-03T11:51:22;20.92;;;12.25;;
60169;SDS011;46042;49.444;6.862;2023-03-03T11:54:03;18.38;;;11.75;;
60169;SDS011;46042;49.444;6.862;2023-03-03T11:56:41;21.63;;;11.65;;
60169;SDS011;46042;49.444;6.862;2023-03-03T12:04:41;20.30;;;11.98;;
60169;SDS011;46042;49.444;6.862;2023-03-03T12:07:26;21.75;;;11.70;;
60169;SDS011;46042;49.444;6.862;2023-03-03T12:13:04;22.48;;;11.50;;
60169;SDS011;46042;49.444;6.862;2023-03-03T12:15:40;16.95;;;10.57;;
60169;SDS011;46042;49.444;6.862;2023-03-03T12:20:48;16.85;;;11.38;;
60169;SDS011;46042;49.444;6.862;2023-03-03T12:23:33;22.60;;;11.43;;
60169;SDS011;46042;49.444;6.862;2023-03-03T12:26:49;20.00;;;11.77;;
60169;SDS011;46042;49.444;6.862;2023-03-03T12:29:06;19.85;;;10.80;;
60169;SDS011;46042;49.444;6.862;2023-03-03T12:35:49;21.00;;;11.23;;
60169;SDS011;46042;49.444;6.862;2023-03-03T12:40:23;16.17;;;10.07;;
60169;SDS011;46042;49.444;6.862;2023-03-03T12:43:43;20.02;;;11.77;;
60169;SDS011;46042;49.444;6.862;2023-03-03T12:48:37;22.15;;;11.25;;
60169;SDS011;46042;49.444;6.862;2023-03-03T12:56:55;19.08;;;10.77;;
60169;SDS011;46042;49.444;6.862;2023-03-03T12:59:41;17.95;;;10.27;;
60169;SDS011;46042;49.444;6.862;2023-03-03T13:08:42;16.48;;;10.65;;
60169;SDS011;46042;49.444;6.862;2023-03-03T13:14:11;21.23;;;10.05;;
60169;SDS011;46042;49.444;6.862;2023-03-03T13:19:39;25.38;;;11.75;;
60169;SDS011;46042;49.444;6.862;2023-03-03T13:22:12;18.00;;;10.23;;
60169;SDS011;46042;49.444;6.862;2023-03-03T13:27:22;16.67;;;9.65;;
60169;SDS011;46042;49.444;6.862;2023-03-03T13:32:58;17.17;;;9.50;;
60169;SDS011;46042;49.444;6.862;2023-03-03T13:35:49;16.75;;;9.45;;
60169;SDS011;46042;49.444;6.862;2023-03-03T13:38:34;17.80;;;9.50;;
60169;SDS011;46042;49.444;6.862;2023-03-03T13:44:21;15.32;;;9.70;;
60169;SDS011;46042;49.444;6.862;2023-03-03T13:52:41;15.85;;;10.55;;
60169;SDS011;46042;49.444;6.862;2023-03-03T13:55:39;18.15;;;10.40;;
60169;SDS011;46042;49.444;6.862;2023-03-03T14:01:13;17.25;;;10.32;;
60169;SDS011;46042;49.444;6.862;2023-03-03T14:06:50;20.13;;;11.60;;
60169;SDS011;46042;49.444;6.862;2023-03-03T14:12:19;19.60;;;11.15;;
60169;SDS011;46042;49.444;6.862;2023-03-03T14:14:57;15.27;;;10.23;;
60169;SDS011;46042;49.444;6.862;2023-03-03T14:17:54;16.98;;;10.27;;
60169;SDS011;46042;49.444;6.862;2023-03-03T14:20:40;16.77;;;9.52;;
60169;SDS011;46042;49.444;6.862;2023-03-03T14:23:18;17.02;;;9.07;;
60169;SDS011;46042;49.444;6.862;2023-03-03T14:25:52;17.83;;;8.30;;
60169;SDS011;46042;49.444;6.862;2023-03-03T14:28:25;15.23;;;8.82;;
60169;SDS011;46042;49.444;6.862;2023-03-03T14:30:54;23.67;;;9.55;;
60169;SDS011;46042;49.444;6.862;2023-03-03T14:33:26;24.33;;;9.30;;
60169;SDS011;46042;49.444;6.862;2023-03-03T14:38:23;18.88;;;9.10;;
60169;SDS011;46042;49.444;6.862;2023-03-03T14:41:12;16.63;;;9.15;;
60169;SDS011;46042;49.444;6.862;2023-03-03T14:43:45;18.20;;;9.18;;
60169;SDS011;46042;49.444;6.862;2023-03-03T14:48:54;20.17;;;9.90;;
60169;SDS011;46042;49.444;6.862;2023-03-03T14:51:37;22.90;;;9.77;;
60169;SDS011;46042;49.444;6.862;2023-03-03T14:54:13;16.90;;;9.25;;
60169;SDS011;46042;49.444;6.862;2023-03-03T15:02:39;16.20;;;9.52;;
60169;SDS011;46042;49.444;6.862;2023-03-03T15:08:06;17.88;;;9.52;;
60169;SDS011;46042;49.444;6.862;2023-03-03T15:10:36;18.13;;;9.93;;
60169;SDS011;46042;49.444;6.862;2023-03-03T15:16:09;19.10;;;10.48;;
60169;SDS011;46042;49.444;6.862;2023-03-03T15:21:27;19.70;;;10.07;;
60169;SDS011;46042;49.444;6.862;2023-03-03T15:26:54;15.00;;;9.98;;
60169;SDS011;46042;49.444;6.862;2023-03-03T15:32:07;20.08;;;9.23;;
60169;SDS011;46042;49.444;6.862;2023-03-03T15:40:15;20.50;;;9.98;;
60169;SDS011;46042;49.444;6.862;2023-03-03T15:51:51;19.50;;;9.88;;
60169;SDS011;46042;49.444;6.862;2023-03-03T16:02:51;20.48;;;7.43;;
60169;SDS011;46042;49.444;6.862;2023-03-03T16:05:29;12.48;;;7.53;;
60169;SDS011;46042;49.444;6.862;2023-03-03T16:08:10;16.92;;;8.68;;
60169;SDS011;46042;49.444;6.862;2023-03-03T16:10:54;15.00;;;7.97;;
60169;SDS011;46042;49.444;6.862;2023-03-03T16:16:41;16.80;;;6.97;;
60169;SDS011;46042;49.444;6.862;2023-03-03T16:22:55;17.88;;;7.28;;
60169;SDS011;46042;49.444;6.862;2023-03-03T16:27:42;15.80;;;8.05;;
60169;SDS011;46042;49.444;6.862;2023-03-03T16:34:17;19.35;;;7.93;;
60169;SDS011;46042;49.444;6.862;2023-03-03T16:50:15;15.77;;;8.32;;
60169;SDS011;46042;49.444;6.862;2023-03-03T16:53:30;19.23;;;9.38;;
60169;SDS011;46042;49.444;6.862;2023-03-03T16:56:22;21.08;;;10.65;;
60169;SDS011;46042;49.444;6.862;2023-03-03T16:59:16;30.73;;;12.38;;
60169;SDS011;46042;49.444;6.862;2023-03-03T17:02:02;26.52;;;13.43;;
60169;SDS011;46042;49.444;6.862;2023-03-03T17:04:52;22.77;;;13.30;;
60169;SDS011;46042;49.444;6.862;2023-03-03T17:10:05;26.95;;;15.43;;
60169;SDS011;46042;49.444;6.862;2023-03-03T17:15:51;25.05;;;13.45;;
60169;SDS011;46042;49.444;6.862;2023-03-03T17:21:19;28.35;;;14.95;;
60169;SDS011;46042;49.444;6.862;2023-03-03T17:41:28;24.95;;;12.77;;
60169;SDS011;46042;49.444;6.862;2023-03-03T17:52:04;26.80;;;14.32;;
60169;SDS011;46042;49.444;6.862;2023-03-03T18:03:49;24.58;;;14.48;;
60169;SDS011;46042;49.444;6.862;2023-03-03T18:17:46;25.85;;;14.93;;
60169;SDS011;46042;49.444;6.862;2023-03-03T18:20:33;26.80;;;13.05;;
60169;SDS011;46042;49.444;6.862;2023-03-03T18:28:46;24.67;;;13.77;;
60169;SDS011;46042;49.444;6.862;2023-03-03T18:31:20;23.40;;;12.48;;
60169;SDS011;46042;49.444;6.862;2023-03-03T18:38:54;23.98;;;12.23;;
60169;SDS011;46042;49.444;6.862;2023-03-03T18:41:26;27.58;;;15.02;;
60169;SDS011;46042;49.444;6.862;2023-03-03T18:54:02;25.92;;;13.20;;
60169;SDS011;46042;49.444;6.862;2023-03-03T19:02:40;28.92;;;12.90;;
60169;SDS011;46042;49.444;6.862;2023-03-03T19:13:34;38.75;;;19.38;;
60169;SDS011;46042;49.444;6.862;2023-03-03T19:15:58;33.20;;;16.17;;
60169;SDS011;46042;49.444;6.862;2023-03-03T19:18:27;25.80;;;14.27;;
60169;SDS011;46042;49.444;6.862;2023-03-03T19:23:54;27.77;;;11.82;;
60169;SDS011;46042;49.444;6.862;2023-03-03T19:29:14;27.48;;;12.70;;
60169;SDS011;46042;49.444;6.862;2023-03-03T19:32:11;26.40;;;13.13;;
60169;SDS011;46042;49.444;6.862;2023-03-03T19:34:56;28.50;;;12.77;;
60169;SDS011;46042;49.444;6.862;2023-03-03T19:46:35;22.83;;;11.82;;
60169;SDS011;46042;49.444;6.862;2023-03-03T19:49:45;24.00;;;11.77;;
60169;SDS011;46042;49.444;6.862;2023-03-03T19:55:32;24.27;;;12.07;;
60169;SDS011;46042;49.444;6.862;2023-03-03T20:08:43;23.42;;;12.07;;
60169;SDS011;46042;49.444;6.862;2023-03-03T20:23:29;32.15;;;14.32;;
60169;SDS011;46042;49.444;6.862;2023-03-03T20:26:32;25.87;;;12.20;;
60169;SDS011;46042;49.444;6.862;2023-03-03T20:53:30;27.15;;;13.20;;
60169;SDS011;46042;49.444;6.862;2023-03-03T20:58:44;26.17;;;14.17;;
60169;SDS011;46042;49.444;6.862;2023-03-03T21:06:45;33.73;;;14.60;;
60169;SDS011;46042;49.444;6.862;2023-03-03T21:12:01;32.03;;;14.53;;
60169;SDS011;46042;49.444;6.862;2023-03-03T21:14:36;31.27;;;13.70;;
60169;SDS011;46042;49.444;6.862;2023-03-03T21:19:50;32.17;;;15.03;;
60169;SDS011;46042;49.444;6.862;2023-03-03T21:22:17;28.47;;;14.93;;
60169;SDS011;46042;49.444;6.862;2023-03-03T21:24:53;39.23;;;17.93;;
60169;SDS011;46042;49.444;6.862;2023-03-03T21:27:28;29.27;;;14.03;;
60169;SDS011;46042;49.444;6.862;2023-03-03T21:32:36;29.30;;;15.33;;
60169;SDS011;46042;49.444;6.862;2023-03-03T21:35:17;32.72;;;14.93;;
60169;SDS011;46042;49.444;6.862;2023-03-03T21:37:51;27.80;;;13.87;;
60169;SDS011;46042;49.444;6.862;2023-03-03T21:40:22;20.20;;;11.63;;
60169;SDS011;46042;49.444;6.862;2023-03-03T21:42:51;30.03;;;14.47;;
60169;SDS011;46042;49.444;6.862;2023-03-03T21:45:20;27.20;;;13.90;;
60169;SDS011;46042;49.444;6.862;2023-03-03T21:47:49;27.70;;;14.00;;
60169;SDS011;46042;49.444;6.862;2023-03-03T21:50:16;30.37;;;16.00;;
60169;SDS011;46042;49.444;6.862;2023-03-03T21:52:47;26.57;;;14.27;;
60169;SDS011;46042;49.444;6.862;2023-03-03T21:55:13;29.33;;;14.43;;
60169;SDS011;46042;49.444;6.862;2023-03-03T21:57:40;36.03;;;15.67;;
60169;SDS011;46042;49.444;6.862;2023-03-03T22:00:08;30.47;;;14.93;;
60169;SDS011;46042;49.444;6.862;2023-03-03T22:02:35;31.00;;;14.97;;
60169;SDS011;46042;49.444;6.862;2023-03-03T22:05:02;30.13;;;14.17;;
60169;SDS011;46042;49.444;6.862;2023-03-03T22:07:29;28.23;;;14.47;;
60169;SDS011;46042;49.444;6.862;2023-03-03T22:09:55;30.30;;;15.13;;
60169;SDS011;46042;49.444;6.862;2023-03-03T22:12:22;24.87;;;13.80;;
60169;SDS011;46042;49.444;6.862;2023-03-03T22:14:49;29.87;;;14.37;;
60169;SDS011;46042;49.444;6.862;2023-03-03T22:17:15;30.73;;;14.27;;
60169;SDS011;46042;49.444;6.862;2023-03-03T22:19:42;32.50;;;13.60;;
60169;SDS011;46042;49.444;6.862;2023-03-03T22:22:08;28.63;;;13.37;;